createdAt,value
2022-09-21T00:12:45.047Z,23.87
2022-09-21T00:27:47.318Z,22.94
2022-09-21T00:42:49.561Z,21.98
2022-09-21T00:57:51.822Z,21.9
2022-09-21T01:12:54.467Z,21.14
2022-09-21T01:27:56.701Z,21.52
2022-09-21T01:42:58.953Z,20.7
2022-09-21T01:58:01.154Z,20.63
2022-09-21T02:13:03.356Z,19.42
2022-09-21T02:28:05.594Z,19.16
2022-09-21T02:43:07.854Z,19.04
2022-09-21T02:58:10.239Z,18.07
2022-09-21T03:13:12.776Z,17.76
2022-09-21T03:28:15.039Z,17.03
2022-09-21T03:43:17.423Z,16.55
2022-09-21T03:58:19.611Z,16.66
2022-09-21T04:13:21.834Z,16.58
2022-09-21T04:28:24.250Z,15.41
2022-09-21T04:43:26.542Z,15.3
2022-09-21T04:58:28.775Z,15.31
2022-09-21T05:13:30.967Z,15.36
2022-09-21T05:28:36.597Z,14.68
2022-09-21T05:43:42.378Z,14.66
2022-09-21T05:58:44.853Z,13.97
2022-09-21T06:13:47.307Z,14.13
2022-09-21T06:28:49.932Z,13.91
2022-09-21T06:43:52.225Z,13.96
2022-09-21T06:58:54.504Z,13.87
2022-09-21T07:13:56.891Z,13.64
2022-09-21T07:28:59.091Z,12.72
2022-09-21T07:44:01.432Z,12.66
2022-09-21T07:59:03.786Z,12.48
2022-09-21T08:14:06.388Z,12
2022-09-21T08:29:08.687Z,11.9
2022-09-21T08:44:10.918Z,12.43
2022-09-21T08:59:13.202Z,11.57
2022-09-21T09:14:15.428Z,12.14
2022-09-21T09:29:17.675Z,12.12
2022-09-21T09:44:19.975Z,12.09
2022-09-21T09:59:22.353Z,11.78
2022-09-21T10:14:24.538Z,11.86
2022-09-21T10:29:26.763Z,11.76
2022-09-21T10:44:29.015Z,11.47
2022-09-21T10:59:31.163Z,11.09
2022-09-21T11:14:33.518Z,10.86
2022-09-21T11:29:35.866Z,9.95
2022-09-21T11:44:38.025Z,9.86
2022-09-21T11:59:40.295Z,10.11
2022-09-21T12:14:42.710Z,10.53
2022-09-21T12:29:44.911Z,9.94
2022-09-21T12:44:47.126Z,10.03
2022-09-21T12:59:49.530Z,10.11
2022-09-21T13:14:51.731Z,9.6
2022-09-21T13:29:53.941Z,10.05
2022-09-21T13:44:56.284Z,9.39
2022-09-21T13:59:58.512Z,9.94
2022-09-21T14:15:00.715Z,9.64
2022-09-21T14:30:06.456Z,9.85
2022-09-21T14:45:09.556Z,17.47
2022-09-21T15:00:11.896Z,13.86
2022-09-21T15:15:14.162Z,12.54
2022-09-21T15:30:16.545Z,12.8
2022-09-21T15:45:18.900Z,18.21
2022-09-21T16:00:21.158Z,15.51
2022-09-21T16:15:23.345Z,15.75
2022-09-21T16:30:25.629Z,17.75
2022-09-21T16:45:27.923Z,17.27
2022-09-21T17:00:30.250Z,18.21
2022-09-21T17:15:32.690Z,18.54
2022-09-21T17:30:34.810Z,21.53
2022-09-21T17:45:37.037Z,24.81
2022-09-21T18:00:39.252Z,23.04
2022-09-21T18:15:41.556Z,20.61
2022-09-21T18:30:43.840Z,20.41
2022-09-21T18:45:46.020Z,20.23
2022-09-21T19:00:48.281Z,20.2
2022-09-21T19:16:00.215Z,19.89
2022-09-21T19:31:03.582Z,20.7
2022-09-21T19:46:05.915Z,22.28
2022-09-21T20:01:08.324Z,23.03
2022-09-21T20:16:13.034Z,24
2022-09-21T20:31:18.226Z,24.53
2022-09-21T20:46:20.578Z,23.95
2022-09-21T21:01:22.928Z,24.75
2022-09-21T21:16:25.302Z,23.83
2022-09-21T21:31:27.614Z,23.54
2022-09-21T21:46:30.009Z,23.99
2022-09-21T22:01:32.342Z,24.08
2022-09-21T22:16:34.750Z,23.87
2022-09-21T22:31:37.134Z,23.63
2022-09-21T22:46:39.492Z,23.28
2022-09-21T23:16:42.905Z,22.97
2022-09-21T23:31:46.127Z,23.07
2022-09-21T23:46:48.834Z,23.24
